Time;durP1;ratioP1;P1;durP2;ratioP2;P2;SDS_P1;SDS_P2;PMS_P1;PMS_P2;Temp;Humidity;BMP_temperature;BMP_pressure;BME280_temperature;BME280_humidity;BME280_pressure;Samples;Min_cycle;Max_cycle;Signal;HPM_P1;HPM_P2
2021/07/30 00:00:47;;;;;;;6.77;2.83;;;18.40;84.70;;;;;;6161569;23;20460;-46
2021/07/30 00:03:15;;;;;;;8.53;2.87;;;18.40;85.10;;;;;;6161162;23;20480;-45
2021/07/30 00:05:41;;;;;;;6.40;2.67;;;18.30;86.00;;;;;;6161375;23;20406;-43
2021/07/30 00:08:08;;;;;;;6.60;2.97;;;18.40;86.50;;;;;;6161435;23;20453;-42
2021/07/30 00:10:34;;;;;;;3.00;2.67;;;18.40;86.40;;;;;;6161610;23;20476;-44
2021/07/30 00:13:01;;;;;;;4.47;3.17;;;18.40;86.80;;;;;;6161131;23;20501;-42
2021/07/30 00:15:28;;;;;;;5.63;2.97;;;18.30;87.60;;;;;;6160534;23;20405;-40
2021/07/30 00:17:55;;;;;;;6.93;2.93;;;18.30;88.00;;;;;;6160716;23;20417;-39
2021/07/30 00:20:25;;;;;;;4.07;2.70;;;18.30;87.60;;;;;;6161716;23;20414;-46
2021/07/30 00:22:52;;;;;;;7.67;2.90;;;18.30;88.00;;;;;;6161344;23;20402;-49
2021/07/30 00:25:19;;;;;;;3.20;2.63;;;18.20;88.60;;;;;;6160510;23;20406;-45
2021/07/30 00:27:45;;;;;;;4.37;3.00;;;18.20;88.90;;;;;;6160581;23;20413;-40
2021/07/30 00:30:13;;;;;;;7.67;3.17;;;18.20;89.80;;;;;;6159927;23;20437;-43
2021/07/30 00:32:40;;;;;;;4.80;3.37;;;18.20;89.40;;;;;;6160228;23;20413;-41
2021/07/30 00:35:08;;;;;;;6.70;3.47;;;18.10;89.60;;;;;;6160474;23;20457;-41
2021/07/30 00:37:37;;;;;;;5.30;3.60;;;18.10;90.10;;;;;;6160263;23;20708;-42
2021/07/30 00:40:05;;;;;;;4.30;3.40;;;18.10;90.40;;;;;;6161211;23;20430;-46
2021/07/30 00:42:32;;;;;;;6.50;3.27;;;18.10;90.60;;;;;;6160697;23;20947;-43
2021/07/30 00:44:59;;;;;;;5.77;3.97;;;18.00;91.30;;;;;;6160572;23;20405;-46
2021/07/30 00:47:26;;;;;;;7.90;3.03;;;18.00;90.80;;;;;;6160714;23;20501;-43
2021/07/30 00:49:53;;;;;;;7.33;2.77;;;18.00;91.20;;;;;;6161048;23;20488;-48
2021/07/30 00:52:20;;;;;;;4.30;3.10;;;17.90;91.60;;;;;;6161210;23;20406;-48
2021/07/30 00:54:48;;;;;;;6.43;2.97;;;17.90;92.70;;;;;;6160581;23;20804;-40
2021/07/30 00:57:15;;;;;;;4.83;3.03;;;17.90;92.20;;;;;;6160841;23;20409;-44
2021/07/30 00:59:42;;;;;;;3.93;3.33;;;17.90;92.40;;;;;;6161801;23;20405;-40
2021/07/30 01:02:09;;;;;;;3.53;2.97;;;17.80;92.60;;;;;;6161837;23;20413;-46
2021/07/30 01:04:36;;;;;;;5.43;2.70;;;17.80;92.80;;;;;;6160477;23;20464;-43
2021/07/30 01:07:02;;;;;;;4.00;3.03;;;17.80;93.00;;;;;;6161280;23;20617;-40
2021/07/30 01:09:29;;;;;;;5.47;2.70;;;17.80;93.20;;;;;;6160669;23;20484;-45
2021/07/30 01:11:59;;;;;;;3.00;2.67;;;17.70;93.30;;;;;;6161219;23;20448;-46
2021/07/30 01:14:25;;;;;;;4.60;2.60;;;17.70;93.60;;;;;;6160902;23;20508;-43
2021/07/30 01:16:52;;;;;;;6.90;2.87;;;17.60;94.00;;;;;;6161011;23;20546;-43
2021/07/30 01:19:22;;;;;;;3.43;2.73;;;17.60;94.50;;;;;;6161256;23;20736;-46
2021/07/30 01:21:50;;;;;;;5.17;3.10;;;17.60;95.10;;;;;;6160663;23;20456;-43
2021/07/30 01:24:18;;;;;;;4.43;2.93;;;17.50;95.30;;;;;;6160897;23;20433;-45
2021/07/30 01:26:45;;;;;;;6.03;3.03;;;17.50;95.60;;;;;;6160687;23;20402;-41
2021/07/30 01:29:12;;;;;;;4.60;2.60;;;17.50;96.30;;;;;;6160513;23;20476;-42
2021/07/30 01:31:39;;;;;;;5.77;3.20;;;17.50;97.00;;;;;;6160232;23;20413;-44
2021/07/30 01:34:05;;;;;;;5.53;2.73;;;17.50;96.70;;;;;;6160478;23;20402;-43
2021/07/30 01:36:32;;;;;;;6.03;2.70;;;17.50;97.00;;;;;;6161041;23;20749;-42
2021/07/30 01:38:59;;;;;;;4.73;2.40;;;17.50;97.40;;;;;;6159528;23;20777;-43
2021/07/30 01:41:27;;;;;;;6.57;3.13;;;17.50;97.90;;;;;;6161413;23;20736;-41
2021/07/30 01:43:54;;;;;;;4.10;2.60;;;17.40;98.70;;;;;;6161416;23;20406;-42
2021/07/30 01:46:20;;;;;;;5.57;3.27;;;17.40;98.60;;;;;;6162094;23;20414;-41
2021/07/30 01:48:47;;;;;;;5.07;2.43;;;17.40;98.90;;;;;;6161585;23;20472;-43
2021/07/30 01:51:14;;;;;;;5.17;2.50;;;17.40;99.50;;;;;;6161060;23;20442;-40
2021/07/30 01:53:40;;;;;;;2.60;2.40;;;17.30;99.90;;;;;;6160879;23;20425;-44
2021/07/30 01:56:07;;;;;;;5.60;2.23;;;17.30;99.90;;;;;;6161148;23;20905;-43
2021/07/30 01:58:35;;;;;;;2.83;1.80;;;17.30;99.90;;;;;;6160233;23;20508;-45
2021/07/30 02:01:02;;;;;;;5.60;2.70;;;17.20;99.90;;;;;;6160726;23;20402;-42
2021/07/30 02:03:29;;;;;;;3.90;2.10;;;17.10;99.90;;;;;;6160433;23;20418;-41
2021/07/30 02:05:56;;;;;;;3.70;2.83;;;17.10;99.90;;;;;;6160579;23;20405;-49
2021/07/30 02:08:22;;;;;;;3.47;2.80;;;17.10;99.90;;;;;;6160944;23;20472;-42
2021/07/30 02:10:49;;;;;;;3.93;2.80;;;17.10;99.90;;;;;;6160837;23;20441;-41
2021/07/30 02:16:01;;;;;;;5.20;3.63;;;17.10;99.90;;;;;;6160842;23;20436;-41
2021/07/30 02:18:28;;;;;;;4.97;3.77;;;17.10;99.90;;;;;;6160708;23;20411;-45
2021/07/30 02:20:55;;;;;;;7.33;3.23;;;17.10;99.90;;;;;;6160881;23;20746;-47
2021/07/30 02:23:22;;;;;;;3.93;3.00;;;17.00;99.90;;;;;;6162771;23;20409;-44
2021/07/30 02:25:48;;;;;;;4.73;3.50;;;17.00;99.90;;;;;;6162815;23;20464;-42
2021/07/30 02:28:15;;;;;;;7.90;4.10;;;16.90;99.90;;;;;;6162639;23;20425;-43
2021/07/30 02:30:42;;;;;;;4.20;3.63;;;17.00;99.90;;;;;;6163195;23;20908;-41
2021/07/30 02:33:10;;;;;;;4.30;3.10;;;16.90;99.90;;;;;;6162927;23;20767;-40
2021/07/30 02:35:36;;;;;;;10.73;3.93;;;16.90;99.90;;;;;;6163345;23;20417;-47
2021/07/30 02:38:03;;;;;;;6.50;3.00;;;16.90;99.90;;;;;;6162808;23;20438;-42
2021/07/30 02:40:34;;;;;;;3.27;2.60;;;16.90;99.90;;;;;;6163620;23;20406;-45
2021/07/30 02:43:01;;;;;;;5.00;3.07;;;16.80;99.90;;;;;;6163868;23;20418;-47
2021/07/30 02:45:27;;;;;;;8.07;3.90;;;16.80;99.90;;;;;;6162994;23;20513;-46
2021/07/30 02:47:54;;;;;;;8.83;3.40;;;16.70;99.90;;;;;;6162308;23;20405;-48
2021/07/30 02:50:22;;;;;;;3.43;3.10;;;16.60;99.90;;;;;;6162373;23;20500;-44
2021/07/30 02:52:49;;;;;;;4.00;3.57;;;16.60;99.90;;;;;;6163098;23;20421;-41
2021/07/30 02:55:15;;;;;;;6.63;3.53;;;16.60;99.90;;;;;;6163004;23;20479;-43
2021/07/30 02:57:44;;;;;;;3.40;3.07;;;16.60;99.90;;;;;;6162913;23;20401;-44
2021/07/30 03:00:12;;;;;;;3.83;2.27;;;16.60;99.90;;;;;;6163202;23;20425;-44
2021/07/30 03:02:39;;;;;;;4.37;3.30;;;16.50;99.90;;;;;;6162887;23;20437;-44
2021/07/30 03:05:06;;;;;;;5.77;3.13;;;16.50;99.90;;;;;;6162855;23;20423;-41
2021/07/30 03:07:41;;;;;;;3.77;2.93;;;16.50;99.90;;;;;;6163186;23;20436;-41
2021/07/30 03:10:08;;;;;;;10.47;2.80;;;16.50;99.90;;;;;;6163264;23;20433;-40
2021/07/30 03:12:35;;;;;;;7.80;3.53;;;16.40;99.90;;;;;;6163062;23;20405;-40
2021/07/30 03:15:03;;;;;;;8.00;3.47;;;16.40;99.90;;;;;;6163904;23;20402;-40
2021/07/30 03:17:30;;;;;;;3.50;2.80;;;16.30;99.90;;;;;;6163626;23;20893;-39
2021/07/30 03:19:56;;;;;;;3.30;2.77;;;16.30;99.90;;;;;;6163569;23;20873;-40
2021/07/30 03:22:23;;;;;;;5.20;3.13;;;16.30;99.90;;;;;;6164268;23;20405;-41
2021/07/30 03:24:51;;;;;;;5.07;3.30;;;16.30;99.90;;;;;;6163615;23;20402;-44
2021/07/30 03:27:18;;;;;;;5.83;3.03;;;16.30;99.90;;;;;;6163293;23;20441;-43
2021/07/30 03:29:45;;;;;;;5.73;3.20;;;16.30;99.90;;;;;;6163371;23;20432;-42
2021/07/30 03:32:12;;;;;;;5.73;3.37;;;16.30;99.90;;;;;;6163335;23;20424;-39
2021/07/30 03:34:38;;;;;;;15.00;3.80;;;16.30;99.90;;;;;;6163299;23;20449;-41
2021/07/30 03:37:08;;;;;;;3.53;2.60;;;16.30;99.90;;;;;;6163543;23;20441;-40
2021/07/30 03:39:35;;;;;;;5.77;3.40;;;16.30;99.90;;;;;;6163320;23;20410;-40
2021/07/30 03:42:03;;;;;;;3.80;2.87;;;16.20;99.90;;;;;;6163073;23;20787;-40
2021/07/30 03:44:30;;;;;;;5.20;3.17;;;16.20;99.90;;;;;;6163479;23;20441;-40
2021/07/30 03:46:56;;;;;;;3.20;2.90;;;16.20;99.90;;;;;;6163785;23;20861;-41
2021/07/30 03:49:24;;;;;;;5.10;3.07;;;16.20;99.90;;;;;;6163179;23;20410;-41
2021/07/30 03:51:50;;;;;;;4.73;2.87;;;16.20;99.90;;;;;;6162894;23;20438;-44
2021/07/30 03:54:18;;;;;;;4.20;2.83;;;16.20;99.90;;;;;;6163195;23;20412;-40
2021/07/30 03:56:45;;;;;;;7.93;3.17;;;16.30;99.90;;;;;;6163385;23;20417;-41
2021/07/30 03:59:15;;;;;;;8.50;3.20;;;16.30;99.90;;;;;;6163082;23;20421;-45
2021/07/30 04:01:47;;;;;;;5.50;3.40;;;16.30;99.90;;;;;;6162405;23;20685;-43
2021/07/30 04:04:17;;;;;;;5.70;3.23;;;16.30;99.90;;;;;;6162522;23;20409;-41
2021/07/30 04:06:44;;;;;;;3.20;2.90;;;16.30;99.90;;;;;;6161895;23;20439;-40
2021/07/30 04:09:11;;;;;;;3.77;2.80;;;16.30;99.90;;;;;;6161942;23;20481;-41
2021/07/30 04:11:38;;;;;;;5.63;2.87;;;16.30;99.90;;;;;;6161644;23;20441;-45
2021/07/30 04:14:05;;;;;;;4.63;3.37;;;16.30;99.90;;;;;;6162329;23;20416;-41
2021/07/30 04:16:34;;;;;;;3.80;3.10;;;16.30;99.90;;;;;;6162500;23;20935;-41
2021/07/30 04:19:01;;;;;;;12.00;3.43;;;16.30;99.90;;;;;;6162164;23;20521;-42
2021/07/30 04:21:27;;;;;;;3.63;3.33;;;16.30;99.90;;;;;;6161800;23;20429;-44
2021/07/30 04:23:54;;;;;;;4.37;3.33;;;16.30;99.90;;;;;;6161608;23;20768;-42
2021/07/30 04:26:21;;;;;;;4.70;3.03;;;16.30;99.90;;;;;;6161593;23;20487;-43
2021/07/30 04:28:48;;;;;;;9.13;3.03;;;16.30;99.90;;;;;;6162009;23;20471;-43
2021/07/30 04:31:15;;;;;;;6.60;3.63;;;16.30;99.90;;;;;;6161524;23;20449;-43
2021/07/30 04:33:43;;;;;;;5.90;3.97;;;16.30;99.90;;;;;;6160883;23;20406;-44
2021/07/30 04:36:14;;;;;;;4.20;3.10;;;16.30;99.90;;;;;;6161826;23;20410;-41
2021/07/30 04:38:41;;;;;;;4.20;2.97;;;16.30;99.90;;;;;;6161211;23;20453;-41
2021/07/30 04:41:08;;;;;;;3.47;3.03;;;16.40;99.90;;;;;;6161147;23;20405;-45
2021/07/30 04:43:35;;;;;;;7.23;3.97;;;16.40;99.90;;;;;;6161494;23;20414;-42
2021/07/30 04:46:02;;;;;;;3.50;2.73;;;16.40;99.90;;;;;;6160732;23;20441;-41
2021/07/30 04:48:29;;;;;;;5.90;3.50;;;16.40;99.90;;;;;;6160936;23;20398;-42
2021/07/30 04:50:57;;;;;;;4.83;3.03;;;16.40;99.90;;;;;;6161571;23;20562;-41
2021/07/30 04:53:23;;;;;;;5.10;3.50;;;16.40;99.90;;;;;;6162348;23;20761;-44
2021/07/30 04:55:53;;;;;;;5.03;3.50;;;16.40;99.90;;;;;;6160581;23;20939;-46
2021/07/30 04:58:20;;;;;;;7.53;3.40;;;16.50;99.90;;;;;;6159185;23;20421;-44
2021/07/30 05:00:47;;;;;;;4.13;2.50;;;16.40;99.90;;;;;;6160518;23;20909;-41
2021/07/30 05:03:14;;;;;;;5.07;2.83;;;16.50;99.90;;;;;;6161567;23;20421;-45
2021/07/30 05:05:40;;;;;;;7.23;3.83;;;16.50;99.90;;;;;;6161523;23;20410;-42
2021/07/30 05:08:08;;;;;;;5.70;3.03;;;16.50;99.90;;;;;;6161032;23;20468;-45
2021/07/30 05:10:35;;;;;;;6.03;3.00;;;16.60;99.90;;;;;;6160711;23;20511;-45
2021/07/30 05:13:02;;;;;;;5.67;2.93;;;16.60;99.90;;;;;;6160838;23;20715;-43
2021/07/30 05:15:30;;;;;;;2.83;2.50;;;16.70;99.90;;;;;;6160780;23;20449;-44
2021/07/30 05:17:57;;;;;;;7.13;2.57;;;16.70;99.90;;;;;;6160768;23;20413;-43
2021/07/30 05:20:24;;;;;;;5.20;3.30;;;16.80;99.90;;;;;;6161459;23;20749;-44
2021/07/30 05:22:51;;;;;;;5.63;3.17;;;16.90;99.90;;;;;;6163124;23;20437;-42
2021/07/30 05:25:19;;;;;;;4.37;3.10;;;16.90;99.90;;;;;;6163974;23;20412;-41
2021/07/30 05:27:46;;;;;;;6.20;3.97;;;16.90;99.90;;;;;;6164287;23;20915;-41
2021/07/30 05:30:13;;;;;;;6.13;3.03;;;17.00;99.90;;;;;;6159780;23;20410;-45
2021/07/30 05:32:40;;;;;;;5.30;3.27;;;17.00;99.90;;;;;;6163601;23;20474;-45
2021/07/30 05:35:07;;;;;;;5.40;2.80;;;17.10;99.90;;;;;;6163378;23;20405;-44
2021/07/30 05:37:34;;;;;;;4.50;3.37;;;17.20;99.90;;;;;;6163166;23;20445;-42
2021/07/30 05:40:01;;;;;;;5.07;3.27;;;17.20;99.90;;;;;;6162701;23;20413;-47
2021/07/30 05:42:29;;;;;;;7.33;3.33;;;17.30;99.90;;;;;;6160449;23;20414;-45
2021/07/30 05:44:55;;;;;;;5.40;3.80;;;17.30;99.90;;;;;;6161331;23;20406;-41
2021/07/30 05:47:22;;;;;;;4.87;4.13;;;17.40;99.90;;;;;;6160828;23;20405;-41
2021/07/30 05:49:49;;;;;;;4.67;3.03;;;17.60;99.90;;;;;;6160821;23;20425;-41
2021/07/30 05:52:16;;;;;;;6.40;3.33;;;17.70;99.90;;;;;;6160626;23;20500;-41
2021/07/30 05:54:42;;;;;;;5.40;3.20;;;17.90;99.90;;;;;;6160930;23;20410;-41
2021/07/30 05:57:09;;;;;;;4.47;3.10;;;18.00;99.90;;;;;;6162151;23;20405;-45
2021/07/30 05:59:37;;;;;;;4.20;3.20;;;18.10;99.90;;;;;;6162992;23;20417;-42
2021/07/30 06:02:04;;;;;;;4.03;3.10;;;18.20;99.90;;;;;;6162292;23;20410;-43
2021/07/30 06:04:30;;;;;;;4.87;3.67;;;18.20;99.90;;;;;;6161652;23;20469;-42
2021/07/30 06:06:57;;;;;;;5.03;2.77;;;18.30;99.90;;;;;;6162674;23;20421;-44
2021/07/30 06:09:24;;;;;;;4.83;3.80;;;18.50;99.90;;;;;;6162246;23;20433;-41
2021/07/30 06:11:50;;;;;;;4.10;2.70;;;18.50;99.90;;;;;;6161827;23;20508;-42
2021/07/30 06:14:17;;;;;;;10.50;3.77;;;18.70;99.90;;;;;;6162433;23;20464;-42
2021/07/30 06:16:48;;;;;;;4.93;3.90;;;18.90;99.90;;;;;;6162402;23;20418;-41
2021/07/30 06:19:15;;;;;;;3.43;2.80;;;19.00;99.90;;;;;;6159204;23;20409;-46
2021/07/30 06:21:42;;;;;;;4.47;2.87;;;19.00;99.90;;;;;;6161566;23;20397;-42
2021/07/30 06:24:08;;;;;;;8.30;4.10;;;19.10;99.90;;;;;;6162233;23;20410;-42
2021/07/30 06:26:37;;;;;;;5.37;3.73;;;19.10;99.90;;;;;;6161425;23;20471;-42
2021/07/30 06:29:04;;;;;;;5.93;3.20;;;19.10;99.90;;;;;;6161190;23;20412;-44
2021/07/30 06:31:32;;;;;;;5.93;3.23;;;19.20;99.90;;;;;;6161660;23;20703;-43
2021/07/30 06:34:00;;;;;;;6.63;4.13;;;19.10;99.90;;;;;;6161067;23;20484;-42
2021/07/30 06:36:26;;;;;;;7.40;2.93;;;19.20;99.90;;;;;;6161720;23;20409;-44
2021/07/30 06:38:53;;;;;;;5.60;3.30;;;19.20;99.90;;;;;;6161567;23;20437;-41
2021/07/30 06:41:19;;;;;;;12.87;4.30;;;19.20;99.90;;;;;;6162001;23;20422;-43
2021/07/30 06:43:46;;;;;;;7.17;3.70;;;19.20;99.90;;;;;;6162151;23;20484;-41
2021/07/30 06:46:13;;;;;;;6.30;3.20;;;19.30;99.90;;;;;;6162026;23;20410;-46
2021/07/30 06:48:40;;;;;;;6.00;3.50;;;19.40;99.90;;;;;;6161604;23;20409;-43
2021/07/30 06:51:11;;;;;;;6.10;4.00;;;19.40;99.90;;;;;;6160671;23;20745;-42
2021/07/30 06:53:37;;;;;;;7.23;3.30;;;19.40;99.90;;;;;;6161363;23;20473;-46
2021/07/30 06:56:09;;;;;;;10.50;4.87;;;19.40;99.90;;;;;;6161029;23;20421;-43
2021/07/30 06:58:36;;;;;;;6.60;3.10;;;19.40;99.90;;;;;;6161177;23;20383;-43
2021/07/30 07:01:03;;;;;;;4.30;3.10;;;19.40;99.90;;;;;;6161493;23;20406;-42
2021/07/30 07:03:30;;;;;;;9.87;3.50;;;19.50;99.90;;;;;;6161674;23;20406;-41
2021/07/30 07:05:57;;;;;;;13.70;7.53;;;19.60;99.90;;;;;;6161526;23;20480;-47
2021/07/30 07:08:25;;;;;;;6.40;3.83;;;19.70;99.90;;;;;;6160212;23;20409;-44
2021/07/30 07:10:51;;;;;;;6.40;2.57;;;19.80;99.90;;;;;;6160179;23;20732;-44
2021/07/30 07:13:20;;;;;;;6.73;3.90;;;19.90;99.90;;;;;;6160006;23;20409;-43
2021/07/30 07:15:47;;;;;;;5.73;3.83;;;20.00;99.90;;;;;;6160442;23;20414;-44
2021/07/30 07:18:14;;;;;;;4.80;3.00;;;20.10;99.90;;;;;;6160570;23;20420;-43
2021/07/30 07:20:41;;;;;;;9.17;3.90;;;20.20;99.90;;;;;;6161087;23;20425;-44
2021/07/30 07:23:08;;;;;;;4.70;3.53;;;20.20;99.90;;;;;;6160581;23;20476;-43
2021/07/30 07:25:41;;;;;;;8.97;5.57;;;20.40;99.90;;;;;;6160436;23;20413;-44
2021/07/30 07:28:07;;;;;;;5.70;3.47;;;21.30;99.90;;;;;;6159378;23;20421;-42
2021/07/30 07:30:34;;;;;;;15.17;4.63;;;22.80;99.90;;;;;;6159492;23;20413;-43
2021/07/30 07:33:01;;;;;;;8.63;3.40;;;24.40;99.10;;;;;;6158924;23;20735;-46
2021/07/30 07:35:27;;;;;;;9.33;4.10;;;25.50;91.60;;;;;;6159439;23;20464;-42
2021/07/30 07:38:02;;;;;;;6.93;3.17;;;26.00;85.80;;;;;;6159214;23;20433;-45
2021/07/30 07:40:29;;;;;;;6.50;3.70;;;25.80;83.00;;;;;;6159018;23;20433;-46
2021/07/30 07:42:57;;;;;;;6.60;3.73;;;25.40;81.30;;;;;;6159598;23;20405;-49
2021/07/30 07:45:24;;;;;;;8.33;3.60;;;24.80;82.80;;;;;;6159875;23;20414;-42
2021/07/30 07:47:51;;;;;;;5.63;3.40;;;24.40;84.20;;;;;;6159751;23;20402;-45
2021/07/30 07:50:18;;;;;;;5.53;4.23;;;24.70;84.30;;;;;;6159439;23;20417;-42
2021/07/30 07:52:45;;;;;;;8.10;4.33;;;25.40;81.30;;;;;;6158784;23;20441;-42
2021/07/30 07:55:11;;;;;;;5.43;3.73;;;26.50;78.20;;;;;;6158220;23;20487;-46
2021/07/30 07:57:40;;;;;;;7.97;3.60;;;27.80;71.00;;;;;;6158969;23;20410;-44
2021/07/30 08:00:09;;;;;;;4.60;3.17;;;28.60;67.70;;;;;;6158733;23;20406;-46
2021/07/30 08:02:36;;;;;;;5.53;3.70;;;29.60;62.50;;;;;;6157852;23;20734;-43
2021/07/30 08:05:03;;;;;;;6.40;4.07;;;30.00;59.90;;;;;;6158351;23;20493;-45
2021/07/30 08:07:30;;;;;;;4.70;3.50;;;30.80;57.40;;;;;;6158787;23;20398;-44
2021/07/30 08:09:56;;;;;;;8.27;3.67;;;31.00;54.50;;;;;;6158175;23;20472;-44
2021/07/30 08:12:23;;;;;;;11.13;4.00;;;30.80;53.50;;;;;;6157914;23;21012;-45
2021/07/30 08:14:52;;;;;;;4.93;3.87;;;30.70;52.80;;;;;;6158235;23;20401;-50
2021/07/30 08:17:20;;;;;;;4.87;3.33;;;30.60;53.00;;;;;;6158051;23;20406;-45
2021/07/30 08:19:50;;;;;;;9.03;6.60;;;30.70;53.10;;;;;;6158207;23;20915;-42
2021/07/30 08:22:17;;;;;;;12.40;7.83;;;31.00;52.10;;;;;;6158340;23;20481;-45
2021/07/30 08:24:44;;;;;;;5.60;3.27;;;31.20;52.00;;;;;;6158126;23;20895;-43
2021/07/30 08:27:11;;;;;;;6.70;4.53;;;31.10;51.60;;;;;;6158405;23;20441;-45
2021/07/30 08:29:37;;;;;;;9.90;3.97;;;30.90;51.70;;;;;;6158155;23;21007;-45
2021/07/30 08:32:04;;;;;;;5.83;3.23;;;31.20;51.10;;;;;;6157946;23;20445;-48
2021/07/30 08:34:32;;;;;;;7.37;3.60;;;31.70;50.40;;;;;;6157736;23;20402;-48
2021/07/30 08:36:59;;;;;;;6.90;3.50;;;32.20;49.50;;;;;;6157721;23;20497;-46
2021/07/30 08:39:26;;;;;;;6.20;3.27;;;32.10;48.00;;;;;;6158116;23;20685;-45
2021/07/30 08:41:58;;;;;;;5.80;3.13;;;32.30;48.50;;;;;;6157815;23;20402;-45
2021/07/30 08:44:25;;;;;;;5.47;3.30;;;32.30;47.60;;;;;;6157669;23;20414;-47
2021/07/30 08:46:52;;;;;;;7.13;4.37;;;32.50;47.20;;;;;;6157950;23;20402;-47
2021/07/30 08:49:19;;;;;;;3.67;3.10;;;32.70;47.10;;;;;;6157772;23;20405;-47
2021/07/30 08:51:50;;;;;;;9.47;4.30;;;32.90;46.40;;;;;;6157792;23;20512;-47
2021/07/30 08:54:17;;;;;;;7.07;3.73;;;32.50;46.60;;;;;;6157725;23;20515;-42
2021/07/30 08:56:45;;;;;;;9.60;3.40;;;31.60;47.40;;;;;;6157654;23;20417;-44
2021/07/30 08:59:12;;;;;;;5.73;3.63;;;31.10;48.10;;;;;;6158290;23;20410;-44
2021/07/30 09:01:38;;;;;;;3.40;3.07;;;30.50;49.00;;;;;;6158106;23;20409;-46
2021/07/30 09:04:05;;;;;;;6.70;3.43;;;30.70;49.10;;;;;;6157918;23;20413;-45
2021/07/30 09:06:35;;;;;;;4.90;2.83;;;30.70;48.90;;;;;;6157842;23;20464;-45
2021/07/30 09:09:08;;;;;;;3.47;2.67;;;31.30;48.20;;;;;;6157868;23;20418;-46
2021/07/30 09:11:36;;;;;;;5.40;3.87;;;31.80;47.70;;;;;;6157958;23;20508;-44
2021/07/30 09:14:05;;;;;;;4.57;3.40;;;31.90;47.40;;;;;;6157603;23;20406;-47
2021/07/30 09:16:46;;;;;;;5.70;3.23;;;31.30;47.00;;;;;;6157842;23;20405;-44
2021/07/30 09:19:13;;;;;;;3.27;2.73;;;31.10;47.10;;;;;;6157852;23;20677;-41
2021/07/30 09:21:39;;;;;;;4.83;3.27;;;30.30;48.30;;;;;;6157757;23;20698;-44
2021/07/30 09:24:09;;;;;;;6.80;3.80;;;29.40;49.80;;;;;;6157790;23;20717;-46
2021/07/30 09:26:38;;;;;;;7.93;3.63;;;29.40;50.20;;;;;;6157860;23;20898;-42
2021/07/30 09:29:07;;;;;;;7.30;3.57;;;29.50;50.60;;;;;;6157903;23;20491;-43
2021/07/30 09:31:43;;;;;;;5.40;3.40;;;30.10;49.40;;;;;;6157327;23;20464;-46
2021/07/30 09:34:20;;;;;;;6.63;2.97;;;30.10;49.10;;;;;;6158030;23;20436;-45
2021/07/30 09:36:49;;;;;;;6.60;3.23;;;30.40;48.80;;;;;;6158014;23;20406;-42
2021/07/30 09:39:18;;;;;;;6.33;3.57;;;30.90;48.40;;;;;;6158037;23;20390;-44
2021/07/30 09:41:53;;;;;;;5.67;3.47;;;31.20;47.50;;;;;;6157854;23;20866;-45
2021/07/30 09:44:19;;;;;;;5.63;4.10;;;30.70;47.70;;;;;;6157721;23;20401;-45
2021/07/30 09:47:08;;;;;;;3.93;3.33;;;29.90;49.20;;;;;;6157610;23;20883;-44
2021/07/30 09:49:46;;;;;;;4.30;2.93;;;29.60;49.60;;;;;;6157799;23;20378;-46
2021/07/30 09:52:15;;;;;;;6.83;2.90;;;29.50;50.30;;;;;;6157473;23;20928;-44
2021/07/30 09:54:45;;;;;;;4.60;3.00;;;29.90;49.40;;;;;;6157437;23;20491;-47
2021/07/30 09:57:13;;;;;;;8.00;3.00;;;29.80;49.50;;;;;;6157703;23;20406;-45
2021/07/30 09:59:43;;;;;;;5.23;3.17;;;29.50;49.90;;;;;;6157177;23;20782;-44
2021/07/30 10:02:13;;;;;;;7.40;3.83;;;29.00;50.80;;;;;;6157627;23;20432;-44
2021/07/30 10:04:42;;;;;;;5.37;2.70;;;29.20;51.10;;;;;;6157877;23;20406;-45
2021/07/30 10:07:12;;;;;;;5.37;4.20;;;29.90;50.50;;;;;;6157397;23;20762;-46
2021/07/30 10:09:39;;;;;;;7.50;4.00;;;30.00;50.00;;;;;;6157352;23;20876;-43
2021/07/30 10:12:08;;;;;;;6.37;2.80;;;30.40;49.50;;;;;;6157851;23;20433;-43
2021/07/30 10:14:34;;;;;;;5.20;3.07;;;30.80;48.70;;;;;;6157704;23;20406;-48
2021/07/30 10:17:03;;;;;;;8.70;3.90;;;31.00;48.30;;;;;;6157296;23;20429;-43
2021/07/30 10:19:30;;;;;;;6.23;3.10;;;31.00;47.80;;;;;;6158080;23;20472;-42
2021/07/30 10:22:00;;;;;;;5.30;3.10;;;31.10;47.70;;;;;;6157733;23;20915;-43
2021/07/30 10:24:30;;;;;;;4.70;3.20;;;31.20;48.00;;;;;;6157611;23;20779;-47
2021/07/30 10:27:02;;;;;;;6.73;2.70;;;31.20;48.00;;;;;;6157272;23;20421;-48
2021/07/30 10:30:02;;;;;;;7.90;3.13;;;31.30;48.70;;;;;;6157567;23;20398;-49
2021/07/30 10:32:52;;;;;;;4.53;3.10;;;30.70;47.90;;;;;;6157276;23;20496;-47
2021/07/30 10:35:20;;;;;;;3.20;2.60;;;30.50;48.30;;;;;;6157657;23;20418;-46
2021/07/30 10:37:47;;;;;;;8.17;3.10;;;30.90;48.70;;;;;;6157333;23;20448;-43
2021/07/30 10:40:24;;;;;;;5.23;3.70;;;30.60;47.80;;;;;;6156936;23;20413;-44
2021/07/30 10:43:08;;;;;;;12.37;3.40;;;29.60;48.90;;;;;;6156958;23;20955;-47
2021/07/30 10:45:37;;;;;;;7.63;3.23;;;28.70;49.90;;;;;;6159119;23;20394;-44
2021/07/30 10:48:34;;;;;;;8.00;3.10;;;27.90;51.20;;;;;;6159298;23;20868;-41
2021/07/30 10:51:04;;;;;;;3.77;3.37;;;27.20;53.10;;;;;;6159694;23;20402;-42
2021/07/30 10:53:48;;;;;;;8.13;4.07;;;27.00;53.40;;;;;;6159572;23;20437;-47
2021/07/30 10:56:51;;;;;;;5.13;2.73;;;27.30;53.30;;;;;;6159689;23;20386;-47
2021/07/30 10:59:20;;;;;;;5.17;3.30;;;27.60;53.30;;;;;;6159474;23;20400;-50
2021/07/30 11:01:59;;;;;;;6.53;3.10;;;27.90;52.80;;;;;;6159205;23;20464;-51
2021/07/30 11:04:27;;;;;;;5.30;3.53;;;27.50;52.60;;;;;;6159210;23;20718;-46
2021/07/30 11:06:58;;;;;;;6.77;3.70;;;27.00;53.40;;;;;;6159186;23;20710;-44
2021/07/30 11:09:37;;;;;;;5.23;3.00;;;26.50;54.10;;;;;;6159599;23;20416;-42
2021/07/30 11:12:05;;;;;;;2.60;2.40;;;26.40;54.60;;;;;;6159002;23;20401;-43
2021/07/30 11:14:33;;;;;;;3.40;3.10;;;26.60;54.30;;;;;;6159405;23;20417;-42
2021/07/30 11:17:04;;;;;;;3.50;2.77;;;26.90;54.40;;;;;;6159419;23;20464;-42
2021/07/30 11:19:32;;;;;;;6.50;3.47;;;27.10;53.90;;;;;;6159542;23;20460;-42
2021/07/30 11:22:00;;;;;;;6.83;3.73;;;27.20;54.70;;;;;;6159263;23;20406;-45
2021/07/30 11:24:27;;;;;;;5.73;3.10;;;27.30;53.70;;;;;;6159090;23;20425;-48
2021/07/30 11:26:54;;;;;;;4.57;2.80;;;27.50;54.00;;;;;;6159411;23;20754;-42
2021/07/30 11:29:22;;;;;;;6.37;2.90;;;27.40;53.50;;;;;;6159120;23;20417;-47
2021/07/30 11:31:56;;;;;;;4.30;3.07;;;27.40;53.00;;;;;;6159185;23;20414;-44
2021/07/30 11:34:29;;;;;;;6.13;3.00;;;27.00;53.30;;;;;;6159132;23;20448;-45
2021/07/30 11:36:56;;;;;;;5.83;3.13;;;27.00;53.80;;;;;;6159113;23;20468;-45
2021/07/30 11:39:34;;;;;;;5.07;2.60;;;27.00;54.10;;;;;;6158991;23;20393;-45
2021/07/30 11:42:01;;;;;;;4.70;2.70;;;27.10;54.20;;;;;;6159104;23;20401;-45
2021/07/30 11:44:28;;;;;;;3.67;2.50;;;27.10;53.80;;;;;;6158470;23;20402;-46
2021/07/30 11:46:57;;;;;;;5.07;3.40;;;27.00;54.20;;;;;;6159067;23;20413;-48
2021/07/30 11:49:30;;;;;;;6.77;2.93;;;27.10;54.90;;;;;;6158824;23;20727;-43
2021/07/30 11:51:57;;;;;;;9.13;3.23;;;27.10;54.40;;;;;;6159136;23;20461;-43
2021/07/30 11:54:25;;;;;;;6.40;3.13;;;27.20;55.00;;;;;;6158566;23;20916;-44
2021/07/30 11:56:52;;;;;;;8.80;3.70;;;27.60;54.20;;;;;;6159017;23;20405;-44
2021/07/30 11:59:19;;;;;;;5.67;3.50;;;27.60;53.00;;;;;;6158407;23;20417;-48
2021/07/30 12:02:00;;;;;;;11.27;3.93;;;27.40;54.10;;;;;;6158719;23;20856;-42
2021/07/30 12:04:29;;;;;;;6.63;3.33;;;26.90;54.40;;;;;;6159131;23;20461;-48
2021/07/30 12:06:57;;;;;;;7.53;3.67;;;26.60;55.60;;;;;;6158934;23;20448;-45
2021/07/30 12:09:27;;;;;;;7.27;3.80;;;26.50;55.80;;;;;;6158529;23;20480;-45
2021/07/30 12:11:55;;;;;;;4.63;3.47;;;26.40;55.80;;;;;;6160073;23;20433;-44
2021/07/30 12:14:24;;;;;;;8.20;2.93;;;26.40;56.00;;;;;;6159023;23;20441;-43
2021/07/30 12:16:53;;;;;;;4.17;3.37;;;26.40;56.60;;;;;;6159181;23;20414;-44
2021/07/30 12:19:28;;;;;;;5.83;3.13;;;26.50;56.00;;;;;;6159606;23;20729;-45
2021/07/30 12:21:56;;;;;;;9.70;3.10;;;26.70;56.00;;;;;;6159331;23;20393;-42
2021/07/30 12:24:23;;;;;;;13.03;4.33;;;26.50;55.70;;;;;;6159344;23;20865;-44
2021/07/30 12:26:50;;;;;;;5.37;3.67;;;26.40;56.20;;;;;;6160102;23;20440;-42
2021/07/30 12:29:41;;;;;;;7.30;4.80;;;26.40;56.30;;;;;;6159257;23;20420;-44
2021/07/30 12:32:16;;;;;;;3.73;3.00;;;26.50;55.90;;;;;;6159815;23;20386;-47
2021/07/30 12:34:55;;;;;;;5.20;3.00;;;26.50;56.00;;;;;;6159595;23;20492;-44
2021/07/30 12:37:22;;;;;;;3.57;2.80;;;26.60;56.10;;;;;;6159343;23;20731;-44
2021/07/30 12:39:50;;;;;;;6.63;3.20;;;26.50;56.80;;;;;;6159054;23;20421;-44
2021/07/30 12:42:22;;;;;;;7.33;2.77;;;26.50;56.10;;;;;;6158728;23;20952;-45
2021/07/30 12:45:09;;;;;;;6.17;3.77;;;26.30;56.70;;;;;;6159363;23;20385;-45
2021/07/30 12:47:39;;;;;;;4.47;2.60;;;26.20;56.90;;;;;;6159199;23;20837;-47
2021/07/30 12:50:30;;;;;;;4.70;2.87;;;26.30;56.80;;;;;;6159072;23;20418;-43
2021/07/30 12:53:08;;;;;;;4.83;3.10;;;26.20;56.70;;;;;;6159495;23;20437;-47
2021/07/30 12:56:04;;;;;;;5.97;2.70;;;26.20;56.70;;;;;;6159490;23;20696;-44